Fayette, Alabama
Current Conditions -  °F | °C
As of 3:55 PM on Friday 24 Oct 2014 (Local Time) from KJFX Reporting Station
Clear Clear  
Wind Chill: 77°   Ceiling: Unl
Heat Index: 78°   Visibility: 10mi
Dew Point: 43°   Wind: 8mph
Humidity: 29%   Direction: 320°NW
Pressure: 30.06"   Gusts: NA
Location:  33.68°N, 87.83°W
Report Text: KJFX 242055Z AUTO 32007KT 10SM CLR 25/06 A3006 RMK A02 P-128
Loading
Personal Weather Stations






























Interactive Weather Map
Tropical Storm Tracking
New forecast layout! Learn more

10-Day Weather Forecast

Advertisements
Track Severe Weather on mobile